createdAt,value
2022-09-17T00:00:28.933Z,7.57
2022-09-17T00:01:36.161Z,7.60
2022-09-17T00:02:49.193Z,8.55
2022-09-17T00:03:56.248Z,7.80
2022-09-17T00:05:00.648Z,7.35
2022-09-17T00:06:08.028Z,8.30
2022-09-17T00:07:12.199Z,8.65
2022-09-17T00:08:27.101Z,9.68
2022-09-17T00:09:32.396Z,8.35
2022-09-17T00:11:06.669Z,8.82
2022-09-17T00:12:12.675Z,7.45
2022-09-17T00:13:16.646Z,8.30
2022-09-17T00:14:21.874Z,9.50
2022-09-17T00:15:31.803Z,12.27
2022-09-17T00:16:40.537Z,8.38
2022-09-17T00:17:44.738Z,9.52
2022-09-17T00:18:50.536Z,8.98
2022-09-17T00:19:58.428Z,9.38
2022-09-17T00:21:03.865Z,10.30
2022-09-17T00:22:14.901Z,10.50
2022-09-17T00:23:21.880Z,12.20
2022-09-17T00:24:26.886Z,11.07
2022-09-17T00:25:31.888Z,12.02
2022-09-17T00:26:38.008Z,11.75
2022-09-17T00:27:44.449Z,13.02
2022-09-17T00:28:53.522Z,12.70
2022-09-17T00:29:57.413Z,15.02
2022-09-17T00:31:02.750Z,18.77
2022-09-17T00:32:09.034Z,19.25
2022-09-17T00:33:17.826Z,17.60
2022-09-17T00:34:27.896Z,20.27
2022-09-17T00:36:27.006Z,20.02
2022-09-17T00:37:33.735Z,15.30
2022-09-17T00:38:37.585Z,15.75
2022-09-17T00:39:42.782Z,18.75
2022-09-17T00:40:47.028Z,18.65
2022-09-17T00:42:11.334Z,17.63
2022-09-17T00:43:16.128Z,16.45
2022-09-17T00:44:46.613Z,16.90
2022-09-17T00:45:53.859Z,17.75
2022-09-17T00:47:04.989Z,18.17
2022-09-17T00:48:18.637Z,16.60
2022-09-17T00:49:33.958Z,17.08
2022-09-17T00:50:54.615Z,17.33
2022-09-17T00:52:04.291Z,15.10
2022-09-17T00:53:22.258Z,13.70
2022-09-17T00:54:30.111Z,18.38
2022-09-17T00:55:38.397Z,18.38
2022-09-17T00:56:45.806Z,23.02
2022-09-17T00:58:28.896Z,23.10
2022-09-17T00:59:36.317Z,18.60
2022-09-17T01:00:46.214Z,14.27
2022-09-17T01:01:50.708Z,16.42
2022-09-17T01:02:56.735Z,12.93
2022-09-17T01:04:11.717Z,13.23
2022-09-17T01:05:25.240Z,12.02
2022-09-17T01:06:33.857Z,11.75
2022-09-17T01:08:02.943Z,16.52
2022-09-17T01:09:41.189Z,11.27
2022-09-17T01:11:14.735Z,9.68
2022-09-17T01:12:45.489Z,16.15
2022-09-17T01:14:09.614Z,19.83
2022-09-17T01:17:20.059Z,21.88
2022-09-17T01:19:26.008Z,15.10
2022-09-17T01:21:06.511Z,15.10
2022-09-17T01:22:16.366Z,14.15
2022-09-17T01:24:03.249Z,14.65
2022-09-17T01:25:25.437Z,15.77
2022-09-17T01:26:58.025Z,13.18
2022-09-17T01:28:30.417Z,11.32
2022-09-17T01:31:38.207Z,10.00
2022-09-17T01:32:58.687Z,10.13
2022-09-17T01:34:24.253Z,8.82
2022-09-17T01:38:07.091Z,8.40
2022-09-17T01:39:20.547Z,9.65
2022-09-17T01:40:32.863Z,9.75
2022-09-17T01:41:44.527Z,10.23
2022-09-17T01:42:53.210Z,12.45
2022-09-17T01:44:14.253Z,13.25
2022-09-17T01:45:36.919Z,12.98
2022-09-17T01:46:45.693Z,9.52
2022-09-17T01:50:48.646Z,9.85
2022-09-17T01:52:18.496Z,10.20
2022-09-17T01:53:33.195Z,11.32
2022-09-17T01:55:08.145Z,9.93
2022-09-17T01:56:28.907Z,9.30
2022-09-17T01:58:24.954Z,11.13
2022-09-17T01:59:35.872Z,9.25
2022-09-17T02:00:55.795Z,12.57
2022-09-17T02:02:10.838Z,11.73
2022-09-17T02:03:20.689Z,10.98
2022-09-17T02:04:28.437Z,11.88
2022-09-17T02:05:37.111Z,15.63
2022-09-17T02:06:48.835Z,12.90
2022-09-17T02:07:58.267Z,12.15
2022-09-17T02:09:06.410Z,11.43
2022-09-17T02:10:50.281Z,10.40
2022-09-17T02:12:01.568Z,8.98
2022-09-17T02:13:11.355Z,11.55
2022-09-17T02:15:49.136Z,9.18
2022-09-17T02:16:57.518Z,9.23
2022-09-17T02:18:09.687Z,8.80
2022-09-17T02:19:30.189Z,9.55
2022-09-17T02:21:06.088Z,8.55
2022-09-17T02:22:24.170Z,8.95
2022-09-17T02:23:33.646Z,8.70
2022-09-17T02:24:45.296Z,7.70
2022-09-17T02:26:00.425Z,8.40
2022-09-17T02:27:08.227Z,9.07
2022-09-17T02:28:39.864Z,8.68
2022-09-17T02:29:53.408Z,6.90
2022-09-17T02:32:51.975Z,6.95
2022-09-17T02:34:28.178Z,6.68
2022-09-17T02:35:39.609Z,8.43
2022-09-17T02:36:48.367Z,8.90
2022-09-17T02:37:54.577Z,7.57
2022-09-17T02:39:14.651Z,8.55
2022-09-17T02:40:23.729Z,9.38
2022-09-17T02:42:00.276Z,9.05
2022-09-17T02:43:13.349Z,9.80
2022-09-17T02:44:29.076Z,8.57
2022-09-17T02:45:52.886Z,9.52
2022-09-17T02:47:44.229Z,8.30
2022-09-17T02:49:04.975Z,9.90
2022-09-17T02:50:29.115Z,8.43
2022-09-17T02:52:08.450Z,8.40
2022-09-17T02:53:38.785Z,9.27
2022-09-17T02:54:49.410Z,8.55
2022-09-17T02:56:03.737Z,8.48
2022-09-17T02:57:27.573Z,8.20
2022-09-17T02:58:34.910Z,8.07
2022-09-17T02:59:54.149Z,9.68
2022-09-17T03:01:02.907Z,9.50
2022-09-17T03:02:13.820Z,10.95
2022-09-17T03:03:22.096Z,8.38
2022-09-17T03:04:29.677Z,8.95
2022-09-17T03:05:39.528Z,11.40
2022-09-17T03:06:50.823Z,9.65
2022-09-17T03:07:56.666Z,9.52
2022-09-17T03:09:11.978Z,9.80
2022-09-17T03:10:24.136Z,9.15
2022-09-17T03:11:28.179Z,9.07
2022-09-17T03:12:33.481Z,9.43
2022-09-17T03:13:40.337Z,13.35
2022-09-17T03:15:18.334Z,9.27
2022-09-17T03:16:52.381Z,9.10
2022-09-17T03:18:12.566Z,8.93
2022-09-17T03:19:16.198Z,8.77
2022-09-17T03:20:20.839Z,9.15
2022-09-17T03:21:26.606Z,15.48
2022-09-17T03:22:56.220Z,10.48
2022-09-17T03:24:03.417Z,10.45
2022-09-17T03:25:08.621Z,10.10
2022-09-17T03:26:12.219Z,12.95
2022-09-17T03:27:17.126Z,12.90
2022-09-17T03:28:20.645Z,12.02
2022-09-17T03:29:26.067Z,10.38
2022-09-17T03:30:30.891Z,12.75
2022-09-17T03:31:34.936Z,12.50
2022-09-17T03:32:39.764Z,15.73
2022-09-17T03:33:43.312Z,11.05
2022-09-17T03:34:48.520Z,10.68
2022-09-17T03:35:55.014Z,12.55
2022-09-17T03:37:01.581Z,13.23
2022-09-17T03:38:05.900Z,12.07
2022-09-17T03:39:14.084Z,13.20
2022-09-17T03:40:33.238Z,13.80
2022-09-17T03:41:38.266Z,10.77
2022-09-17T03:42:42.024Z,11.15
2022-09-17T03:43:47.209Z,12.93
2022-09-17T03:44:50.999Z,14.05
2022-09-17T03:45:55.552Z,13.93
2022-09-17T03:46:58.814Z,10.00
2022-09-17T03:48:03.587Z,10.00
2022-09-17T03:49:06.877Z,14.13
2022-09-17T03:50:11.450Z,13.82
2022-09-17T03:51:14.756Z,11.90
2022-09-17T03:52:20.729Z,10.82
2022-09-17T03:53:23.886Z,9.80
2022-09-17T03:54:28.080Z,9.85
2022-09-17T03:55:31.347Z,10.38
2022-09-17T03:56:35.569Z,10.05
2022-09-17T03:57:38.806Z,10.00
2022-09-17T03:58:43.158Z,9.70
2022-09-17T03:59:46.515Z,9.88
2022-09-17T04:00:53.583Z,11.88
2022-09-17T04:01:56.926Z,12.52
2022-09-17T04:03:01.373Z,9.48
2022-09-17T04:04:04.627Z,9.43
2022-09-17T04:05:12.093Z,11.05
2022-09-17T04:06:15.560Z,8.77
2022-09-17T04:07:21.458Z,10.80
2022-09-17T04:08:24.868Z,12.85
2022-09-17T04:09:29.981Z,11.07
2022-09-17T04:10:33.280Z,8.77
2022-09-17T04:11:37.707Z,11.75
2022-09-17T04:12:41.112Z,11.45
2022-09-17T04:13:45.449Z,7.70
2022-09-17T04:14:48.567Z,8.60
2022-09-17T04:15:53.543Z,10.57
2022-09-17T04:16:56.921Z,8.63
2022-09-17T04:18:01.212Z,11.43
2022-09-17T04:19:04.960Z,12.60
2022-09-17T04:20:09.635Z,11.98
2022-09-17T04:21:12.799Z,8.98
2022-09-17T04:22:17.149Z,8.32
2022-09-17T04:23:21.728Z,11.30
2022-09-17T04:24:26.069Z,11.32
2022-09-17T04:25:29.460Z,10.70
2022-09-17T04:26:33.685Z,11.95
2022-09-17T04:27:36.945Z,10.80
2022-09-17T04:28:41.538Z,10.50
2022-09-17T04:29:44.647Z,12.10
2022-09-17T04:30:50.282Z,8.07
2022-09-17T04:31:53.879Z,9.60
2022-09-17T04:32:58.107Z,11.55
2022-09-17T04:34:01.291Z,12.32
2022-09-17T04:35:06.209Z,11.07
2022-09-17T04:36:09.474Z,9.13
2022-09-17T04:37:13.816Z,11.63
2022-09-17T04:38:18.880Z,11.48
2022-09-17T04:39:24.678Z,10.50
2022-09-17T04:40:29.147Z,10.93
2022-09-17T04:41:33.837Z,10.90
2022-09-17T04:42:37.111Z,11.65
2022-09-17T04:43:44.494Z,10.15
2022-09-17T04:44:47.916Z,20.13
2022-09-17T04:45:52.244Z,12.88
2022-09-17T04:46:56.028Z,13.50
2022-09-17T04:48:00.913Z,14.02
2022-09-17T04:49:04.593Z,16.30
2022-09-17T04:50:09.689Z,17.42
2022-09-17T04:51:13.289Z,16.02
2022-09-17T04:52:17.842Z,11.57
2022-09-17T04:53:21.204Z,15.85
2022-09-17T04:54:27.107Z,17.88
2022-09-17T04:55:31.518Z,15.70
2022-09-17T04:56:35.893Z,15.60
2022-09-17T04:57:39.327Z,13.60
2022-09-17T04:58:43.723Z,16.65
2022-09-17T04:59:47.967Z,16.58
2022-09-17T05:00:52.652Z,15.23
2022-09-17T05:01:56.037Z,17.50
2022-09-17T05:03:00.427Z,16.98
2022-09-17T05:04:04.856Z,15.40
2022-09-17T05:05:10.209Z,16.60
2022-09-17T05:06:13.682Z,15.32
2022-09-17T05:07:18.394Z,16.00
2022-09-17T05:08:24.059Z,16.33
2022-09-17T05:09:30.289Z,16.38
2022-09-17T05:10:33.795Z,16.58
2022-09-17T05:11:41.566Z,16.92
2022-09-17T05:12:49.167Z,17.60
2022-09-17T05:13:53.885Z,18.55
2022-09-17T05:14:57.355Z,18.33
2022-09-17T05:16:01.938Z,16.27
2022-09-17T05:17:05.347Z,17.98
2022-09-17T05:18:09.966Z,18.33
2022-09-17T05:19:13.684Z,18.52
2022-09-17T05:20:19.295Z,17.88
2022-09-17T05:21:22.687Z,19.73
2022-09-17T05:22:27.128Z,18.88
2022-09-17T05:23:30.425Z,19.92
2022-09-17T05:24:39.527Z,20.45
2022-09-17T05:25:43.881Z,21.58
2022-09-17T05:26:47.217Z,21.08
2022-09-17T05:27:51.681Z,20.65
2022-09-17T05:28:54.886Z,21.42
2022-09-17T05:29:59.229Z,22.23
2022-09-17T05:31:03.342Z,22.83
2022-09-17T05:32:08.024Z,21.40
2022-09-17T05:33:11.197Z,21.10
2022-09-17T05:34:15.540Z,20.63
2022-09-17T05:35:18.887Z,20.83
2022-09-17T05:36:23.144Z,20.83
2022-09-17T05:37:26.425Z,20.42
2022-09-17T05:38:30.937Z,19.58
2022-09-17T05:39:35.993Z,20.38
2022-09-17T05:40:40.411Z,19.60
2022-09-17T05:41:43.575Z,18.88
2022-09-17T05:42:47.846Z,16.58
2022-09-17T05:43:51.468Z,17.83
2022-09-17T05:44:55.519Z,16.60
2022-09-17T05:46:02.342Z,17.38
2022-09-17T05:47:07.085Z,16.15
2022-09-17T05:48:13.329Z,16.20
2022-09-17T05:49:17.798Z,15.82
2022-09-17T05:50:21.168Z,16.60
2022-09-17T05:51:25.538Z,15.88
2022-09-17T05:52:29.219Z,15.73
2022-09-17T05:53:33.867Z,15.15
2022-09-17T05:54:38.909Z,15.95
2022-09-17T05:55:43.502Z,15.23
2022-09-17T05:56:46.689Z,14.80
2022-09-17T05:57:50.995Z,13.32
2022-09-17T05:58:56.577Z,13.45
2022-09-17T06:00:01.040Z,14.02
2022-09-17T06:01:04.676Z,14.60
2022-09-17T06:02:21.624Z,13.75
2022-09-17T06:03:25.002Z,13.70
2022-09-17T06:04:48.007Z,14.73
2022-09-17T06:06:11.638Z,13.93
2022-09-17T06:07:36.904Z,13.43
2022-09-17T06:09:00.117Z,13.98
2022-09-17T06:10:24.616Z,11.35
2022-09-17T06:11:47.349Z,10.57
2022-09-17T06:13:09.643Z,10.07
2022-09-17T06:14:32.395Z,10.07
2022-09-17T06:15:55.162Z,9.88
2022-09-17T06:17:21.572Z,8.93
2022-09-17T06:18:44.816Z,8.45
2022-09-17T06:20:08.538Z,8.10
2022-09-17T06:21:32.106Z,7.82
2022-09-17T06:23:13.932Z,7.68
2022-09-17T06:24:38.494Z,8.25
2022-09-17T06:26:03.824Z,7.10
2022-09-17T06:27:26.687Z,6.50
2022-09-17T06:28:49.227Z,7.00
2022-09-17T06:30:11.316Z,7.38
2022-09-17T06:31:34.047Z,7.03
2022-09-17T06:32:55.315Z,6.35
2022-09-17T06:34:17.939Z,14.38
2022-09-17T06:35:39.264Z,6.72
2022-09-17T06:37:02.109Z,6.68
2022-09-17T06:38:23.590Z,5.95
2022-09-17T06:39:46.023Z,5.40
2022-09-17T06:41:09.761Z,6.07
2022-09-17T06:42:32.505Z,5.30
2022-09-17T06:43:55.525Z,5.40
2022-09-17T06:45:17.626Z,5.63
2022-09-17T06:46:44.494Z,5.25
2022-09-17T06:48:07.811Z,5.63
2022-09-17T06:49:31.375Z,5.50
2022-09-17T06:50:54.586Z,5.82
2022-09-17T06:52:17.148Z,5.82
2022-09-17T06:53:39.664Z,5.63
2022-09-17T06:55:00.920Z,6.95
2022-09-17T06:56:24.804Z,5.97
2022-09-17T06:57:47.072Z,6.93
2022-09-17T06:59:09.678Z,6.20
2022-09-17T07:00:31.696Z,5.78
2022-09-17T07:01:54.044Z,5.57
2022-09-17T07:03:18.038Z,6.07
2022-09-17T07:04:45.056Z,6.38
2022-09-17T07:06:10.936Z,5.95
2022-09-17T07:07:35.233Z,6.55
2022-09-17T07:08:57.598Z,5.10
2022-09-17T07:10:19.156Z,7.65
2022-09-17T07:11:43.320Z,6.07
2022-09-17T07:13:04.599Z,4.93
2022-09-17T07:14:27.015Z,4.85
2022-09-17T07:15:54.346Z,5.28
2022-09-17T07:17:16.726Z,5.82
2022-09-17T07:18:40.218Z,6.05
2022-09-17T07:20:02.934Z,5.72
2022-09-17T07:21:25.405Z,6.60
2022-09-17T07:22:47.940Z,5.40
2022-09-17T07:24:10.681Z,5.72
2022-09-17T07:25:31.996Z,5.63
2022-09-17T07:26:56.244Z,6.13
2022-09-17T07:28:17.708Z,5.82
2022-09-17T07:29:41.672Z,6.05
2022-09-17T07:31:05.610Z,6.13
2022-09-17T07:32:26.804Z,4.80
2022-09-17T07:33:49.193Z,5.25
2022-09-17T07:35:11.867Z,3.75
2022-09-17T07:36:34.392Z,4.53
2022-09-17T07:37:55.785Z,6.05
2022-09-17T07:39:18.356Z,4.15
2022-09-17T07:40:40.474Z,4.18
2022-09-17T07:42:05.039Z,4.30
2022-09-17T07:43:27.167Z,4.60
2022-09-17T07:44:49.619Z,4.45
2022-09-17T07:46:18.070Z,4.82
2022-09-17T07:47:45.686Z,4.78
2022-09-17T07:49:12.586Z,4.55
2022-09-17T07:50:39.405Z,3.70
2022-09-17T07:52:06.721Z,4.63
2022-09-17T07:53:33.302Z,3.78
2022-09-17T07:55:00.156Z,3.92
2022-09-17T07:56:27.779Z,5.20
2022-09-17T07:57:55.847Z,4.38
2022-09-17T07:59:22.806Z,4.43
2022-09-17T08:00:50.138Z,4.90
2022-09-17T08:02:18.706Z,4.32
2022-09-17T08:03:51.105Z,3.53
2022-09-17T08:05:17.641Z,3.90
2022-09-17T08:06:45.057Z,4.38
2022-09-17T08:08:11.948Z,4.25
2022-09-17T08:09:38.618Z,3.33
2022-09-17T08:11:06.075Z,3.40
2022-09-17T08:12:32.392Z,4.07
2022-09-17T08:14:01.243Z,3.35
2022-09-17T08:15:30.570Z,3.17
2022-09-17T08:16:53.864Z,2.90
2022-09-17T08:18:20.638Z,5.70
2022-09-17T08:19:43.241Z,4.25
2022-09-17T08:21:06.962Z,4.90
2022-09-17T08:22:35.097Z,5.38
2022-09-17T08:23:57.876Z,4.15
2022-09-17T08:25:19.187Z,3.13
2022-09-17T08:26:45.955Z,3.47
2022-09-17T08:28:07.660Z,2.70
2022-09-17T08:29:35.288Z,3.20
2022-09-17T08:31:03.136Z,4.22
2022-09-17T08:32:31.067Z,2.58
2022-09-17T08:33:52.782Z,2.35
2022-09-17T08:35:16.729Z,2.42
2022-09-17T08:36:39.919Z,2.88
2022-09-17T08:38:06.447Z,2.50
2022-09-17T08:39:33.226Z,2.30
2022-09-17T08:41:03.850Z,2.30
2022-09-17T08:42:30.283Z,2.17
2022-09-17T08:44:07.887Z,2.85
2022-09-17T08:45:35.953Z,2.60
2022-09-17T08:47:02.502Z,2.45
2022-09-17T08:48:27.226Z,1.95
2022-09-17T08:49:51.944Z,2.65
2022-09-17T08:51:29.027Z,2.80
2022-09-17T08:53:11.772Z,2.85
2022-09-17T08:54:38.279Z,2.42
2022-09-17T08:56:03.668Z,2.55
2022-09-17T08:57:37.476Z,3.95
2022-09-17T08:59:25.627Z,2.42
2022-09-17T09:00:52.623Z,3.58
2022-09-17T09:02:21.795Z,2.30
2022-09-17T09:04:05.628Z,3.22
2022-09-17T09:05:30.550Z,3.60
2022-09-17T09:07:01.605Z,2.70
2022-09-17T09:08:28.807Z,3.70
2022-09-17T09:10:04.346Z,2.00
2022-09-17T09:11:31.276Z,2.20
2022-09-17T09:12:58.386Z,2.00
2022-09-17T09:14:22.195Z,2.25
2022-09-17T09:15:53.986Z,2.47
2022-09-17T09:17:18.656Z,2.70
2022-09-17T09:18:42.315Z,1.77
2022-09-17T09:20:06.102Z,3.53
2022-09-17T09:21:38.205Z,3.22
2022-09-17T09:23:04.945Z,2.20
2022-09-17T09:24:27.564Z,2.22
2022-09-17T09:26:03.635Z,1.95
2022-09-17T09:27:31.279Z,2.25
2022-09-17T09:29:07.270Z,2.85
2022-09-17T09:30:34.326Z,3.10
2022-09-17T09:32:15.958Z,2.90
2022-09-17T09:33:48.058Z,2.92
2022-09-17T09:35:19.523Z,3.30
2022-09-17T09:36:41.972Z,2.70
2022-09-17T09:38:07.796Z,3.28
2022-09-17T09:39:42.569Z,3.42
2022-09-17T09:41:13.315Z,3.45
2022-09-17T09:42:37.513Z,3.20
2022-09-17T09:44:04.704Z,2.60
2022-09-17T09:45:40.595Z,4.63
2022-09-17T09:47:19.726Z,2.80
2022-09-17T09:48:50.960Z,8.55
2022-09-17T09:51:01.774Z,3.80
2022-09-17T09:52:37.984Z,5.50
2022-09-17T09:54:14.244Z,3.60
2022-09-17T09:55:56.294Z,2.92
2022-09-17T09:57:22.189Z,3.85
2022-09-17T09:58:48.820Z,3.92
2022-09-17T10:00:27.020Z,5.55
2022-09-17T10:01:49.688Z,3.75
2022-09-17T10:03:16.730Z,2.78
2022-09-17T10:04:43.177Z,3.47
2022-09-17T10:06:06.536Z,3.13
2022-09-17T10:07:29.075Z,4.45
2022-09-17T10:09:13.407Z,3.20
2022-09-17T10:10:42.836Z,3.75
2022-09-17T10:12:18.207Z,2.67
2022-09-17T10:13:41.845Z,3.25
2022-09-17T10:15:25.026Z,8.70
2022-09-17T10:16:46.297Z,8.82
2022-09-17T10:18:18.533Z,4.47
2022-09-17T10:19:40.022Z,2.70
2022-09-17T10:21:03.036Z,2.88
2022-09-17T10:22:27.291Z,3.50
2022-09-17T10:23:54.609Z,3.92
2022-09-17T10:25:33.360Z,4.20
2022-09-17T10:27:02.801Z,4.53
2022-09-17T10:28:33.660Z,3.38
2022-09-17T10:30:05.381Z,3.75
2022-09-17T10:31:48.537Z,3.58
2022-09-17T10:33:20.142Z,2.97
2022-09-17T10:34:43.415Z,3.47
2022-09-17T10:36:17.249Z,2.75
2022-09-17T10:37:45.992Z,2.97
2022-09-17T10:39:34.312Z,3.92
2022-09-17T10:41:14.726Z,3.90
2022-09-17T10:42:41.634Z,3.55
2022-09-17T10:44:20.261Z,5.95
2022-09-17T10:45:44.094Z,4.40
2022-09-17T10:47:09.535Z,3.33
2022-09-17T10:48:44.160Z,3.60
2022-09-17T10:50:19.179Z,5.00
2022-09-17T10:51:41.708Z,3.95
2022-09-17T10:53:04.958Z,3.63
2022-09-17T10:54:52.495Z,7.80
2022-09-17T10:56:18.466Z,8.98
2022-09-17T10:58:06.136Z,4.32
2022-09-17T10:59:46.561Z,5.88
2022-09-17T11:01:27.424Z,5.57
2022-09-17T11:03:24.926Z,4.00
2022-09-17T11:04:55.446Z,4.45
2022-09-17T11:06:40.265Z,5.85
2022-09-17T11:08:07.609Z,6.30
2022-09-17T11:09:45.498Z,7.35
2022-09-17T11:11:13.604Z,5.40
2022-09-17T11:12:43.618Z,4.40
2022-09-17T11:14:13.772Z,6.47
2022-09-17T11:15:53.207Z,4.40
2022-09-17T11:17:40.281Z,3.97
2022-09-17T11:19:16.474Z,5.75
2022-09-17T11:20:58.128Z,4.68
2022-09-17T11:22:24.414Z,5.50
2022-09-17T11:24:18.104Z,4.28
2022-09-17T11:25:48.887Z,4.82
2022-09-17T11:27:15.817Z,4.28
2022-09-17T11:28:53.957Z,8.48
2022-09-17T11:30:18.872Z,5.30
2022-09-17T11:31:49.955Z,11.35
2022-09-17T11:33:48.457Z,14.80
2022-09-17T11:35:16.780Z,17.70
2022-09-17T11:36:48.218Z,13.75
2022-09-17T11:38:15.406Z,20.13
2022-09-17T11:39:48.847Z,12.30
2022-09-17T11:41:18.494Z,7.72
2022-09-17T11:42:42.882Z,9.70
2022-09-17T11:44:09.473Z,11.15
2022-09-17T11:45:34.165Z,19.98
2022-09-17T11:46:59.289Z,7.43
2022-09-17T11:48:18.414Z,12.02
2022-09-17T11:49:39.242Z,8.38
2022-09-17T11:50:58.832Z,8.73
2022-09-17T11:52:22.087Z,5.70
2022-09-17T11:53:40.310Z,9.10
2022-09-17T11:55:04.609Z,7.30
2022-09-17T11:56:28.025Z,12.15
2022-09-17T11:57:49.127Z,11.13
2022-09-17T11:59:09.047Z,6.00
2022-09-17T12:00:31.673Z,9.27
2022-09-17T12:01:58.818Z,7.53
2022-09-17T12:03:18.393Z,6.82
2022-09-17T12:04:45.881Z,5.57
2022-09-17T12:06:11.078Z,7.40
2022-09-17T12:07:36.416Z,6.38
2022-09-17T12:08:59.014Z,9.25
2022-09-17T12:10:31.875Z,9.38
2022-09-17T12:12:00.705Z,5.82
2022-09-17T12:13:21.237Z,14.73
2022-09-17T12:14:46.953Z,7.35
2022-09-17T12:16:17.300Z,4.95
2022-09-17T12:17:38.412Z,5.90
2022-09-17T12:19:02.443Z,5.43
2022-09-17T12:20:28.815Z,5.43
2022-09-17T12:21:49.447Z,11.15
2022-09-17T12:23:12.424Z,9.48
2022-09-17T12:24:35.785Z,9.48
2022-09-17T12:26:04.366Z,5.80
2022-09-17T12:27:34.408Z,5.72
2022-09-17T12:29:01.279Z,10.80
2022-09-17T12:30:22.821Z,7.35
2022-09-17T12:31:42.059Z,8.20
2022-09-17T12:33:21.586Z,5.68
2022-09-17T12:34:52.109Z,8.35
2022-09-17T12:36:33.349Z,5.78
2022-09-17T12:37:56.017Z,5.68
2022-09-17T12:39:57.095Z,5.38
2022-09-17T12:41:20.486Z,4.75
2022-09-17T12:42:46.294Z,5.10
2022-09-17T12:44:20.267Z,4.32
2022-09-17T12:45:52.517Z,5.50
2022-09-17T12:47:39.036Z,6.40
2022-09-17T12:49:13.723Z,6.85
2022-09-17T12:50:43.718Z,10.35
2022-09-17T12:52:10.344Z,8.23
2022-09-17T12:53:29.465Z,7.10
2022-09-17T12:55:08.694Z,9.30
2022-09-17T12:56:37.356Z,5.90
2022-09-17T12:58:01.643Z,5.15
2022-09-17T12:59:20.625Z,5.43
2022-09-17T13:00:41.649Z,4.95
2022-09-17T13:02:00.362Z,12.88
2022-09-17T13:03:20.963Z,5.95
2022-09-17T13:05:02.214Z,3.72
2022-09-17T13:06:40.588Z,4.20
2022-09-17T13:08:09.720Z,3.40
2022-09-17T13:09:49.300Z,3.67
2022-09-17T13:11:18.054Z,4.28
2022-09-17T13:12:41.827Z,4.40
2022-09-17T13:14:10.957Z,4.22
2022-09-17T13:15:39.188Z,5.45
2022-09-17T13:16:58.228Z,4.40
2022-09-17T13:18:26.687Z,8.88
2022-09-17T13:19:49.468Z,4.78
2022-09-17T13:21:14.446Z,5.88
2022-09-17T13:22:46.070Z,4.65
2022-09-17T13:24:17.006Z,4.10
2022-09-17T13:25:34.336Z,6.78
2022-09-17T13:26:58.921Z,6.80
2022-09-17T13:28:16.015Z,5.15
2022-09-17T13:30:05.308Z,4.35
2022-09-17T13:31:49.009Z,4.25
2022-09-17T13:33:05.428Z,3.72
2022-09-17T13:34:32.769Z,4.72
2022-09-17T13:35:50.506Z,4.68
2022-09-17T13:37:05.541Z,4.22
2022-09-17T13:38:27.368Z,4.55
2022-09-17T13:39:46.942Z,4.65
2022-09-17T13:41:20.626Z,4.07
2022-09-17T13:42:48.043Z,3.92
2022-09-17T13:44:10.925Z,4.28
2022-09-17T13:45:28.640Z,3.88
2022-09-17T13:46:45.006Z,4.38
2022-09-17T13:48:11.354Z,3.85
2022-09-17T13:49:25.674Z,3.70
2022-09-17T13:50:52.116Z,4.00
2022-09-17T13:52:33.486Z,4.20
2022-09-17T13:53:55.825Z,4.88
2022-09-17T13:55:34.414Z,4.30
2022-09-17T13:57:09.766Z,4.18
2022-09-17T13:58:30.737Z,3.65
2022-09-17T13:59:59.734Z,4.50
2022-09-17T14:01:56.927Z,4.13
2022-09-17T14:03:51.258Z,4.50
2022-09-17T14:05:38.543Z,5.03
2022-09-17T14:06:55.157Z,8.38
2022-09-17T14:08:38.857Z,4.28
2022-09-17T14:09:56.029Z,3.60
2022-09-17T14:11:40.352Z,3.60
2022-09-17T14:13:26.016Z,4.40
2022-09-17T14:14:53.541Z,4.30
2022-09-17T14:16:47.906Z,4.35
2022-09-17T14:18:35.594Z,16.35
2022-09-17T14:19:56.526Z,6.68
2022-09-17T14:21:25.624Z,15.60
2022-09-17T14:22:45.996Z,4.85
2022-09-17T14:24:21.987Z,8.82
2022-09-17T14:25:51.220Z,10.98
2022-09-17T14:27:32.288Z,5.13
2022-09-17T14:29:01.038Z,8.18
2022-09-17T14:30:20.846Z,6.25
2022-09-17T14:31:37.737Z,6.10
2022-09-17T14:33:08.378Z,4.20
2022-09-17T14:34:27.976Z,3.88
2022-09-17T14:35:47.031Z,3.97
2022-09-17T14:37:04.783Z,3.70
2022-09-17T14:38:28.614Z,4.05
2022-09-17T14:39:46.034Z,3.65
2022-09-17T14:41:08.013Z,3.72
2022-09-17T14:42:32.662Z,4.00
2022-09-17T14:43:51.868Z,4.07
2022-09-17T14:45:18.686Z,3.97
2022-09-17T14:46:37.371Z,3.70
2022-09-17T14:48:26.232Z,3.67
2022-09-17T14:49:47.318Z,3.83
2022-09-17T14:51:30.518Z,3.78
2022-09-17T14:52:49.480Z,3.95
2022-09-17T14:54:13.959Z,3.92
2022-09-17T14:55:29.916Z,3.83
2022-09-17T14:56:52.936Z,3.85
2022-09-17T14:58:32.278Z,3.95
2022-09-17T14:59:49.685Z,3.47
2022-09-17T15:01:05.994Z,3.50
2022-09-17T15:02:34.602Z,3.67
2022-09-17T15:04:21.959Z,3.75
2022-09-17T15:05:51.121Z,3.42
2022-09-17T15:07:08.765Z,3.45
2022-09-17T15:08:30.592Z,3.42
2022-09-17T15:09:45.725Z,3.78
2022-09-17T15:11:12.085Z,3.70
2022-09-17T15:12:29.804Z,3.85
2022-09-17T15:13:51.171Z,4.40
2022-09-17T15:15:05.323Z,3.78
2022-09-17T15:16:27.771Z,4.25
2022-09-17T15:17:46.058Z,4.10
2022-09-17T15:19:04.968Z,4.10
2022-09-17T15:20:31.550Z,4.10
2022-09-17T15:21:50.766Z,4.20
2022-09-17T15:23:10.632Z,4.45
2022-09-17T15:24:33.316Z,4.68
2022-09-17T15:25:58.517Z,7.03
2022-09-17T15:27:23.663Z,4.55
2022-09-17T15:28:46.537Z,4.88
2022-09-17T15:30:12.407Z,5.45
2022-09-17T15:31:37.025Z,4.50
2022-09-17T15:33:00.254Z,4.60
2022-09-17T15:34:17.796Z,4.38
2022-09-17T15:35:37.236Z,5.68
2022-09-17T15:37:18.047Z,6.00
2022-09-17T15:38:41.687Z,6.28
2022-09-17T15:39:56.832Z,9.82
2022-09-17T15:41:33.895Z,15.45
2022-09-17T15:42:50.673Z,15.35
2022-09-17T15:44:28.965Z,15.13
2022-09-17T15:45:46.601Z,21.88
2022-09-17T15:47:52.914Z,15.95
2022-09-17T15:49:35.187Z,10.55
2022-09-17T15:50:57.088Z,34.53
2022-09-17T15:52:31.517Z,16.40
2022-09-17T15:53:53.665Z,13.40
2022-09-17T15:55:30.957Z,10.55
2022-09-17T15:56:57.932Z,7.47
2022-09-17T15:58:24.953Z,7.68
2022-09-17T15:59:45.845Z,5.03
2022-09-17T16:01:54.958Z,5.15
2022-09-17T16:04:09.938Z,4.88
2022-09-17T16:05:56.469Z,5.47
2022-09-17T16:07:32.490Z,6.05
2022-09-17T16:08:56.156Z,6.05
2022-09-17T16:10:18.899Z,7.35
2022-09-17T16:11:34.884Z,8.88
2022-09-17T16:12:56.093Z,6.32
2022-09-17T16:14:15.130Z,6.20
2022-09-17T16:15:35.877Z,4.93
2022-09-17T16:16:59.148Z,6.72
2022-09-17T16:18:17.027Z,5.97
2022-09-17T16:19:37.704Z,5.88
2022-09-17T16:20:58.946Z,6.60
2022-09-17T16:22:17.545Z,6.15
2022-09-17T16:23:40.111Z,7.60
2022-09-17T16:24:57.657Z,7.90
2022-09-17T16:26:21.116Z,8.57
2022-09-17T16:27:45.048Z,14.15
2022-09-17T16:29:07.954Z,14.90
2022-09-17T16:30:31.416Z,25.38
2022-09-17T16:31:49.304Z,16.17
2022-09-17T16:33:07.325Z,11.25
2022-09-17T16:34:27.535Z,10.90
2022-09-17T16:35:48.804Z,7.43
2022-09-17T16:37:07.519Z,6.93
2022-09-17T16:38:28.827Z,6.80
2022-09-17T16:39:46.739Z,8.50
2022-09-17T16:41:07.257Z,9.95
2022-09-17T16:42:31.261Z,8.68
2022-09-17T16:43:46.097Z,8.45
2022-09-17T16:45:09.243Z,8.70
2022-09-17T16:46:26.145Z,7.88
2022-09-17T16:47:48.658Z,8.18
2022-09-17T16:49:07.546Z,11.50
2022-09-17T16:50:26.291Z,12.40
2022-09-17T16:51:46.202Z,18.67
2022-09-17T16:53:06.046Z,18.85
2022-09-17T16:54:25.047Z,34.58
2022-09-17T16:55:47.744Z,30.88
2022-09-17T16:57:05.348Z,30.38
2022-09-17T16:58:26.179Z,29.35
2022-09-17T16:59:45.236Z,27.73
2022-09-17T17:01:07.542Z,24.92
2022-09-17T17:02:30.723Z,19.98
2022-09-17T17:03:49.356Z,16.75
2022-09-17T17:05:11.488Z,12.18
2022-09-17T17:06:25.126Z,14.10
2022-09-17T17:07:46.363Z,12.10
2022-09-17T17:09:02.178Z,9.20
2022-09-17T17:10:20.716Z,10.45
2022-09-17T17:11:36.517Z,9.52
2022-09-17T17:12:50.782Z,9.05
2022-09-17T17:14:06.550Z,10.10
2022-09-17T17:15:21.954Z,11.13
2022-09-17T17:16:41.332Z,13.65
2022-09-17T17:17:56.726Z,10.65
2022-09-17T17:19:15.363Z,10.00
2022-09-17T17:20:39.446Z,19.80
2022-09-17T17:21:55.267Z,10.35
2022-09-17T17:23:16.474Z,10.35
2022-09-17T17:24:35.316Z,11.30
2022-09-17T17:25:58.928Z,13.10
2022-09-17T17:27:17.727Z,11.50
2022-09-17T17:28:37.408Z,11.30
2022-09-17T17:30:17.230Z,10.27
2022-09-17T17:31:38.238Z,9.50
2022-09-17T17:33:08.628Z,10.57
2022-09-17T17:34:32.982Z,13.57
2022-09-17T17:36:01.939Z,12.60
2022-09-17T17:37:29.819Z,13.98
2022-09-17T17:38:48.994Z,13.40
2022-09-17T17:40:10.733Z,13.45
2022-09-17T17:41:27.629Z,14.57
2022-09-17T17:43:43.618Z,14.88
2022-09-17T17:45:11.827Z,32.80
2022-09-17T17:46:29.143Z,25.23
2022-09-17T17:47:48.209Z,23.00
2022-09-17T17:49:13.085Z,15.77
2022-09-17T17:50:28.238Z,13.02
2022-09-17T17:51:50.283Z,11.68
2022-09-17T17:55:16.682Z,14.32